Time;durP1;ratioP1;P1;durP2;ratioP2;P2;SDS_P1;SDS_P2;PMS_P1;PMS_P2;Temp;Humidity;BMP_temperature;BMP_pressure;BME280_temperature;BME280_humidity;BME280_pressure;Samples;Min_cycle;Max_cycle;Signal;HPM_P1;HPM_P2
2021/09/05 00:02:21;;;;;;;11.57;6.22;;;17.10;90.00;;;;;;5096551;28;20505;-49
2021/09/05 00:04:47;;;;;;;9.63;5.88;;;17.10;89.80;;;;;;5078372;28;20028;-50
2021/09/05 00:07:13;;;;;;;7.90;5.50;;;17.10;89.70;;;;;;5096197;28;20030;-48
2021/09/05 00:09:40;;;;;;;10.63;5.18;;;17.10;89.70;;;;;;5060817;28;20032;-49
2021/09/05 00:12:07;;;;;;;8.55;5.95;;;17.00;90.00;;;;;;5095529;28;20028;-50
2021/09/05 00:14:33;;;;;;;8.13;5.40;;;16.80;90.40;;;;;;5096084;28;20103;-48
2021/09/05 00:17:00;;;;;;;6.75;5.13;;;16.80;90.70;;;;;;5061233;28;20050;-48
2021/09/05 00:19:26;;;;;;;11.07;6.10;;;16.80;90.90;;;;;;5096482;28;20024;-48
2021/09/05 00:21:51;;;;;;;12.25;6.15;;;16.80;90.80;;;;;;5061010;28;20039;-49
2021/09/05 00:24:17;;;;;;;9.02;6.43;;;16.90;90.60;;;;;;5077593;28;20481;-48
2021/09/05 00:26:46;;;;;;;12.63;7.00;;;17.00;90.50;;;;;;5095792;28;20020;-50
2021/09/05 00:29:16;;;;;;;12.05;7.18;;;17.00;90.80;;;;;;5096367;28;20118;-51
2021/09/05 00:31:42;;;;;;;13.00;7.65;;;16.90;90.80;;;;;;5096044;28;20024;-50
2021/09/05 00:34:13;;;;;;;10.82;6.63;;;17.00;90.60;;;;;;5095780;28;20032;-50
2021/09/05 00:36:39;;;;;;;10.63;6.93;;;17.00;90.60;;;;;;5095758;28;20024;-51
2021/09/05 00:39:06;;;;;;;8.98;6.03;;;16.80;90.70;;;;;;5077516;28;20356;-52
2021/09/05 00:41:32;;;;;;;11.43;7.30;;;16.80;90.80;;;;;;5095475;28;20039;-51
2021/09/05 00:44:05;;;;;;;10.55;6.95;;;16.80;90.80;;;;;;5077270;28;20036;-50
2021/09/05 00:46:32;;;;;;;10.27;6.78;;;16.90;90.70;;;;;;5060486;28;20085;-50
2021/09/05 00:48:59;;;;;;;9.23;6.00;;;16.80;90.90;;;;;;5076828;28;20032;-50
2021/09/05 00:51:32;;;;;;;12.00;6.45;;;16.70;90.90;;;;;;5095430;28;20024;-50
2021/09/05 00:53:58;;;;;;;10.70;6.22;;;16.70;90.90;;;;;;5095277;28;20024;-49
2021/09/05 00:56:32;;;;;;;10.40;6.18;;;16.70;90.90;;;;;;5095436;28;20027;-50
2021/09/05 00:59:03;;;;;;;8.50;6.25;;;16.70;90.90;;;;;;5095174;28;20043;-50
2021/09/05 01:01:29;;;;;;;8.50;5.68;;;16.70;90.90;;;;;;5095234;28;20040;-46
2021/09/05 01:03:55;;;;;;;8.65;6.13;;;16.70;90.90;;;;;;5095291;28;20035;-49
2021/09/05 01:06:21;;;;;;;10.18;5.80;;;16.60;90.80;;;;;;5095287;28;20032;-51
2021/09/05 01:08:49;;;;;;;7.05;5.43;;;16.50;90.80;;;;;;5095362;28;20030;-49
2021/09/05 01:11:16;;;;;;;6.88;6.10;;;16.50;90.90;;;;;;5094866;28;20383;-52
2021/09/05 01:13:42;;;;;;;11.30;6.85;;;16.40;91.10;;;;;;5094936;28;20028;-49
2021/09/05 01:16:29;;;;;;;8.60;6.00;;;16.30;91.50;;;;;;5094923;28;20471;-51
2021/09/05 01:19:08;;;;;;;13.98;7.30;;;16.20;91.90;;;;;;5095308;28;20070;-49
2021/09/05 01:21:35;;;;;;;9.75;5.82;;;16.20;91.80;;;;;;5094839;28;20024;-50
2021/09/05 01:24:02;;;;;;;11.15;6.47;;;16.40;91.60;;;;;;5059012;28;20036;-50
2021/09/05 01:26:30;;;;;;;11.07;6.78;;;16.40;91.40;;;;;;5059663;28;20387;-49
2021/09/05 01:28:57;;;;;;;10.48;7.25;;;16.40;91.70;;;;;;5095159;28;20032;-52
2021/09/05 01:31:26;;;;;;;7.85;6.32;;;16.40;91.60;;;;;;5095288;28;20020;-50
2021/09/05 01:33:52;;;;;;;11.93;6.68;;;16.40;91.40;;;;;;5094447;28;20032;-50
2021/09/05 01:36:18;;;;;;;9.48;6.50;;;16.40;91.70;;;;;;5094570;28;20063;-49
2021/09/05 01:38:44;;;;;;;9.98;6.30;;;16.40;91.60;;;;;;5094526;28;20032;-51
2021/09/05 01:41:10;;;;;;;9.52;6.25;;;16.40;91.50;;;;;;5094582;28;20051;-50
2021/09/05 01:43:37;;;;;;;11.98;6.18;;;16.40;91.50;;;;;;5094386;28;20463;-52
2021/09/05 01:46:03;;;;;;;13.40;7.07;;;16.50;91.40;;;;;;5094505;28;20027;-51
2021/09/05 01:48:29;;;;;;;9.23;6.03;;;16.40;91.30;;;;;;5042513;28;20525;-50
2021/09/05 01:50:55;;;;;;;9.95;7.43;;;16.40;91.30;;;;;;5042391;28;20043;-50
2021/09/05 01:53:20;;;;;;;10.23;6.75;;;16.30;91.40;;;;;;5042442;28;20044;-49
2021/09/05 01:55:46;;;;;;;8.18;7.07;;;16.30;91.60;;;;;;5094855;28;20028;-51
2021/09/05 01:58:12;;;;;;;8.75;6.22;;;16.30;91.50;;;;;;5094126;28;20097;-51
2021/09/05 02:00:37;;;;;;;12.18;7.43;;;16.20;91.60;;;;;;5075462;28;20059;-49
2021/09/05 02:03:04;;;;;;;10.50;7.50;;;16.10;91.90;;;;;;5094299;28;20028;-49
2021/09/05 02:05:29;;;;;;;12.00;7.45;;;16.10;92.00;;;;;;5093999;28;20063;-50
2021/09/05 02:07:55;;;;;;;18.23;8.20;;;16.10;92.00;;;;;;5094030;28;20479;-50
2021/09/05 02:10:21;;;;;;;12.93;9.07;;;16.20;92.10;;;;;;5075977;28;20048;-49
2021/09/05 02:12:47;;;;;;;13.23;9.75;;;16.20;92.50;;;;;;5094041;28;20476;-50
2021/09/05 02:15:12;;;;;;;13.30;8.63;;;16.10;92.50;;;;;;5094060;28;20028;-50
2021/09/05 02:17:38;;;;;;;11.65;8.77;;;16.10;92.70;;;;;;5337444;22;20048;-47
2021/09/05 02:20:05;;;;;;;13.43;10.05;;;16.10;92.90;;;;;;5093841;28;20489;-50
2021/09/05 02:22:30;;;;;;;14.10;10.45;;;16.10;93.10;;;;;;5092068;28;20082;-48
2021/09/05 02:24:56;;;;;;;12.35;10.13;;;16.10;93.20;;;;;;5092292;28;20036;-50
2021/09/05 02:27:24;;;;;;;12.15;8.93;;;16.10;93.40;;;;;;5094392;28;20028;-49
2021/09/05 02:29:50;;;;;;;11.93;9.15;;;16.10;93.20;;;;;;5094663;28;20111;-49
2021/09/05 02:32:16;;;;;;;14.15;9.32;;;16.00;93.40;;;;;;5075274;28;20115;-49
2021/09/05 02:34:42;;;;;;;10.85;8.88;;;16.10;93.40;;;;;;5093372;28;20425;-48
2021/09/05 02:37:09;;;;;;;13.35;10.35;;;16.10;93.30;;;;;;5093604;28;20020;-48
2021/09/05 02:39:35;;;;;;;11.50;9.90;;;16.00;93.80;;;;;;5093690;28;20032;-49
2021/09/05 02:42:01;;;;;;;13.00;9.88;;;15.90;94.00;;;;;;5093821;28;20020;-49
2021/09/05 02:44:27;;;;;;;11.65;9.18;;;15.80;94.30;;;;;;5093794;28;20020;-49
2021/09/05 02:46:53;;;;;;;11.93;9.48;;;15.90;94.30;;;;;;5093805;28;20103;-49
2021/09/05 02:49:19;;;;;;;9.82;8.43;;;15.90;94.30;;;;;;5093887;28;20035;-50
2021/09/05 02:51:45;;;;;;;11.40;8.93;;;15.90;94.30;;;;;;5093911;28;20040;-47
2021/09/05 02:54:11;;;;;;;10.77;8.98;;;15.90;94.10;;;;;;5074894;28;20032;-49
2021/09/05 02:56:36;;;;;;;12.73;8.85;;;15.90;94.20;;;;;;5093701;28;20028;-48
2021/09/05 02:59:02;;;;;;;11.63;8.82;;;15.90;94.10;;;;;;5094374;28;20070;-49
2021/09/05 03:01:28;;;;;;;13.85;9.25;;;15.90;94.00;;;;;;5041789;28;20077;-50
2021/09/05 03:03:54;;;;;;;11.40;8.50;;;15.90;94.30;;;;;;5093385;28;20491;-50
2021/09/05 03:06:19;;;;;;;10.05;7.78;;;15.80;94.40;;;;;;5091866;28;20040;-50
2021/09/05 03:08:45;;;;;;;16.02;8.40;;;15.90;94.30;;;;;;5074878;28;20059;-49
2021/09/05 03:11:11;;;;;;;12.73;8.00;;;15.80;94.70;;;;;;5093659;28;20031;-47
2021/09/05 03:13:36;;;;;;;11.88;8.25;;;15.80;94.70;;;;;;5091658;28;20028;-49
2021/09/05 03:16:02;;;;;;;13.27;8.27;;;15.70;94.90;;;;;;5093568;28;20115;-48
2021/09/05 03:18:30;;;;;;;9.80;7.90;;;15.70;94.80;;;;;;5041252;28;20153;-49
2021/09/05 03:20:56;;;;;;;11.38;8.52;;;15.70;94.80;;;;;;5093584;28;20051;-50
2021/09/05 03:23:21;;;;;;;10.18;8.23;;;15.70;94.90;;;;;;5093560;28;20379;-48
2021/09/05 03:25:47;;;;;;;9.93;7.13;;;15.70;94.90;;;;;;5093589;28;20459;-49
2021/09/05 03:28:16;;;;;;;12.32;8.88;;;15.70;94.90;;;;;;5093329;28;20028;-48
2021/09/05 03:30:42;;;;;;;10.02;8.10;;;15.70;94.90;;;;;;5093483;28;20089;-49
2021/09/05 03:33:07;;;;;;;10.52;8.35;;;15.70;95.00;;;;;;5094031;28;20062;-50
2021/09/05 03:35:33;;;;;;;10.32;7.72;;;15.80;94.90;;;;;;5074737;28;20484;-49
2021/09/05 03:37:59;;;;;;;10.82;7.57;;;15.70;94.80;;;;;;5074741;28;20111;-49
2021/09/05 03:40:24;;;;;;;12.75;8.70;;;15.80;94.80;;;;;;5093185;28;20051;-48
2021/09/05 03:42:50;;;;;;;11.85;8.55;;;15.80;95.10;;;;;;5093043;28;20059;-48
2021/09/05 03:45:16;;;;;;;12.05;7.85;;;15.80;95.00;;;;;;5074751;28;20032;-49
2021/09/05 03:47:44;;;;;;;11.02;8.23;;;15.70;95.00;;;;;;5094812;28;20036;-48
2021/09/05 03:50:10;;;;;;;11.30;8.05;;;15.70;94.90;;;;;;5096973;28;20069;-47
2021/09/05 03:52:36;;;;;;;10.98;8.43;;;15.80;95.10;;;;;;5078491;28;20040;-49
2021/09/05 03:55:03;;;;;;;12.00;8.15;;;15.70;94.80;;;;;;5096580;28;20103;-48
2021/09/05 03:57:28;;;;;;;9.52;7.53;;;15.70;94.70;;;;;;5096833;28;20063;-48
2021/09/05 03:59:54;;;;;;;10.63;7.97;;;15.70;94.60;;;;;;5096775;28;20025;-50
2021/09/05 04:02:20;;;;;;;17.58;8.60;;;15.70;94.60;;;;;;5097028;28;20028;-48
2021/09/05 04:04:46;;;;;;;18.20;9.50;;;15.70;94.60;;;;;;5096380;28;20062;-48
2021/09/05 04:07:14;;;;;;;26.33;9.65;;;15.60;94.50;;;;;;5096593;28;20115;-49
2021/09/05 04:12:24;;;;;;;12.65;8.80;;;15.70;94.80;;;;;;5096628;28;20393;-48
2021/09/05 04:14:50;;;;;;;13.48;8.32;;;15.70;94.70;;;;;;5096499;28;20016;-47
2021/09/05 04:17:15;;;;;;;13.35;7.93;;;15.70;94.80;;;;;;5096156;28;20048;-50
2021/09/05 04:19:41;;;;;;;14.93;9.32;;;15.80;94.90;;;;;;5097250;28;20127;-48
2021/09/05 04:22:07;;;;;;;14.75;9.20;;;15.80;94.90;;;;;;5096455;28;20028;-48
2021/09/05 04:24:33;;;;;;;21.30;8.77;;;15.80;94.70;;;;;;5096323;28;20027;-48
2021/09/05 04:26:58;;;;;;;15.55;9.00;;;15.80;94.70;;;;;;5078037;28;20036;-48
2021/09/05 04:29:24;;;;;;;13.05;7.38;;;15.90;94.70;;;;;;5096362;28;20099;-48
2021/09/05 04:31:50;;;;;;;12.15;7.60;;;15.90;94.60;;;;;;5095908;28;20463;-49
2021/09/05 04:34:16;;;;;;;13.25;7.75;;;15.90;94.50;;;;;;5095987;28;20020;-47
2021/09/05 04:36:41;;;;;;;10.93;6.95;;;15.80;94.40;;;;;;5095979;28;20024;-48
2021/09/05 04:39:07;;;;;;;12.18;7.78;;;15.90;94.50;;;;;;5096615;28;20028;-50
2021/09/05 04:41:33;;;;;;;11.65;6.90;;;15.90;94.50;;;;;;5095799;28;20413;-50
2021/09/05 04:43:59;;;;;;;13.23;7.30;;;15.90;94.50;;;;;;5044095;28;20067;-50
2021/09/05 04:46:24;;;;;;;10.93;7.20;;;16.00;94.60;;;;;;5095587;28;20054;-50
2021/09/05 04:48:50;;;;;;;13.90;7.25;;;16.00;94.50;;;;;;5093898;28;20093;-48
2021/09/05 04:51:16;;;;;;;11.00;6.95;;;16.10;94.50;;;;;;5093882;28;20115;-50
2021/09/05 04:53:42;;;;;;;24.88;9.23;;;16.20;94.60;;;;;;5095745;28;20111;-49
2021/09/05 04:56:08;;;;;;;26.73;9.40;;;16.20;94.80;;;;;;5095972;28;20042;-49
2021/09/05 04:58:33;;;;;;;14.35;7.95;;;16.30;94.90;;;;;;5076646;28;20495;-49
2021/09/05 05:00:59;;;;;;;12.40;7.82;;;16.40;94.50;;;;;;5095306;28;20510;-49
2021/09/05 05:03:25;;;;;;;10.32;6.95;;;16.50;94.80;;;;;;5095592;28;20111;-48
2021/09/05 05:05:50;;;;;;;9.18;6.78;;;16.50;94.70;;;;;;5095236;28;20379;-48
2021/09/05 05:08:16;;;;;;;11.73;7.53;;;16.60;94.90;;;;;;5093610;28;20032;-48
2021/09/05 05:10:45;;;;;;;13.85;7.47;;;16.70;94.70;;;;;;5095380;28;20027;-50
2021/09/05 05:13:10;;;;;;;11.93;7.95;;;16.80;94.60;;;;;;5095442;28;20111;-49
2021/09/05 05:15:36;;;;;;;14.23;7.75;;;16.90;94.60;;;;;;5095022;28;20544;-48
2021/09/05 05:18:02;;;;;;;8.55;7.03;;;17.00;94.60;;;;;;5094829;28;20135;-50
2021/09/05 05:20:29;;;;;;;10.35;7.15;;;17.10;94.60;;;;;;5095034;28;20387;-50
2021/09/05 05:22:55;;;;;;;13.57;8.55;;;17.10;94.50;;;;;;5095221;28;20048;-48
2021/09/05 05:25:21;;;;;;;13.35;9.73;;;17.20;94.70;;;;;;5092918;28;20059;-48
2021/09/05 05:27:47;;;;;;;10.93;8.50;;;17.30;94.70;;;;;;5059184;28;20036;-48
2021/09/05 05:30:12;;;;;;;10.15;8.60;;;17.30;95.20;;;;;;5093061;28;20398;-49
2021/09/05 05:32:38;;;;;;;13.40;8.88;;;17.10;95.60;;;;;;5092624;28;20070;-50
2021/09/05 05:35:05;;;;;;;10.75;7.85;;;17.20;96.10;;;;;;5092799;28;20036;-50
2021/09/05 05:37:31;;;;;;;10.98;7.68;;;17.20;95.50;;;;;;5065197;28;20042;-49
2021/09/05 05:39:57;;;;;;;13.10;8.38;;;17.20;95.00;;;;;;4999803;28;20380;-50
2021/09/05 05:42:23;;;;;;;10.57;8.27;;;17.10;95.20;;;;;;5032355;28;20037;-50
2021/09/05 05:44:48;;;;;;;10.88;9.02;;;16.90;95.50;;;;;;5032201;28;20045;-48
2021/09/05 05:47:14;;;;;;;11.93;8.43;;;16.90;95.80;;;;;;5032125;28;20121;-48
2021/09/05 05:49:43;;;;;;;12.65;7.90;;;17.10;95.80;;;;;;5032395;28;20484;-50
2021/09/05 05:52:09;;;;;;;9.93;8.40;;;17.10;95.60;;;;;;5034656;28;20489;-47
2021/09/05 05:54:35;;;;;;;11.68;8.25;;;17.10;95.80;;;;;;5052012;28;20025;-47
2021/09/05 05:57:01;;;;;;;9.98;7.82;;;16.90;95.60;;;;;;5051032;28;20033;-48
2021/09/05 05:59:26;;;;;;;11.10;8.35;;;16.80;96.20;;;;;;5071954;28;20098;-49
2021/09/05 06:01:52;;;;;;;13.05;8.40;;;16.60;96.20;;;;;;5039083;28;20029;-47
2021/09/05 06:04:18;;;;;;;12.13;7.47;;;16.70;96.50;;;;;;5071909;28;20028;-47
2021/09/05 06:06:43;;;;;;;12.07;8.13;;;16.70;96.40;;;;;;5071926;28;20028;-49
2021/09/05 06:09:09;;;;;;;10.82;7.60;;;16.90;96.60;;;;;;5071511;28;20042;-47
2021/09/05 06:11:35;;;;;;;10.52;7.53;;;16.90;96.60;;;;;;5038661;28;20496;-49
2021/09/05 06:14:01;;;;;;;9.98;7.72;;;17.00;96.30;;;;;;5024694;28;20044;-49
2021/09/05 06:16:28;;;;;;;9.55;7.32;;;17.10;96.30;;;;;;5094138;28;20028;-48
2021/09/05 06:18:54;;;;;;;10.73;6.38;;;17.40;96.00;;;;;;5094455;28;20066;-47
2021/09/05 06:21:21;;;;;;;10.10;7.63;;;17.60;95.80;;;;;;5094210;28;20020;-50
2021/09/05 06:23:46;;;;;;;8.65;7.40;;;17.80;95.80;;;;;;5092906;28;20024;-50
2021/09/05 06:26:12;;;;;;;9.95;8.32;;;18.10;95.40;;;;;;5075379;28;20112;-48
2021/09/05 06:28:38;;;;;;;8.50;6.85;;;18.50;95.20;;;;;;5093762;28;20020;-50
2021/09/05 06:31:03;;;;;;;9.52;6.50;;;18.80;95.30;;;;;;5093883;28;20077;-50
2021/09/05 06:33:29;;;;;;;12.27;6.40;;;19.00;94.30;;;;;;5088166;28;20111;-48
2021/09/05 06:35:55;;;;;;;9.63;6.50;;;19.10;93.20;;;;;;5038514;28;20123;-49
2021/09/05 06:38:21;;;;;;;13.38;6.35;;;19.30;93.70;;;;;;5073585;28;20371;-50
2021/09/05 06:40:46;;;;;;;8.57;6.63;;;19.50;93.30;;;;;;5073417;28;20025;-49
2021/09/05 06:43:14;;;;;;;13.40;6.28;;;19.80;93.30;;;;;;5055334;28;20029;-48
2021/09/05 06:45:40;;;;;;;15.18;7.00;;;19.90;92.80;;;;;;5073397;28;20029;-48
2021/09/05 06:48:06;;;;;;;8.18;6.40;;;20.10;92.90;;;;;;5055183;28;20051;-50
2021/09/05 06:50:32;;;;;;;9.45;6.43;;;20.20;91.70;;;;;;5073754;28;20029;-50
2021/09/05 06:52:57;;;;;;;8.50;7.10;;;20.40;91.80;;;;;;5073366;28;20020;-50
2021/09/05 06:55:23;;;;;;;11.25;7.10;;;20.40;91.40;;;;;;5080172;28;20028;-50
2021/09/05 06:57:49;;;;;;;13.35;7.70;;;20.50;91.50;;;;;;5075081;28;20040;-47
2021/09/05 07:00:16;;;;;;;8.50;7.13;;;20.70;91.20;;;;;;5094001;28;20020;-50
2021/09/05 07:02:41;;;;;;;8.55;7.18;;;20.80;90.80;;;;;;5094266;28;20028;-48
2021/09/05 07:05:08;;;;;;;11.40;8.15;;;20.70;90.70;;;;;;5093599;28;20370;-49
2021/09/05 07:07:33;;;;;;;9.32;7.82;;;20.60;91.00;;;;;;4997570;28;20036;-50
2021/09/05 07:10:00;;;;;;;9.68;8.07;;;20.60;91.60;;;;;;5072033;28;20025;-49
2021/09/05 07:12:26;;;;;;;11.15;8.48;;;20.90;92.50;;;;;;5071912;28;20025;-50
2021/09/05 07:14:52;;;;;;;12.43;9.88;;;;;;;;;;5072000;28;20460;-48
2021/09/05 07:17:18;;;;;;;13.85;9.18;;;21.10;90.60;;;;;;5071587;28;20435;-47
2021/09/05 07:19:43;;;;;;;10.30;8.23;;;21.40;90.70;;;;;;5052981;28;20095;-50
2021/09/05 07:22:09;;;;;;;11.20;8.05;;;21.50;89.50;;;;;;5055734;28;20492;-49
2021/09/05 07:24:35;;;;;;;10.85;7.85;;;21.80;89.90;;;;;;5073685;28;20119;-50
2021/09/05 07:27:01;;;;;;;13.15;7.35;;;22.00;88.50;;;;;;5075731;28;20077;-49
2021/09/05 07:29:26;;;;;;;9.57;6.75;;;22.20;88.20;;;;;;5075625;28;20036;-48
2021/09/05 07:31:52;;;;;;;10.10;6.70;;;22.20;85.60;;;;;;5075846;28;20067;-50
2021/09/05 07:34:18;;;;;;;9.10;6.30;;;22.40;86.10;;;;;;5075455;28;20123;-50
2021/09/05 07:36:44;;;;;;;8.50;6.10;;;22.60;85.00;;;;;;5075504;28;20033;-50
2021/09/05 07:39:10;;;;;;;8.00;5.68;;;22.50;83.30;;;;;;5056556;28;20035;-50
2021/09/05 07:41:37;;;;;;;8.80;6.43;;;22.80;83.00;;;;;;5075426;28;20025;-47
2021/09/05 07:44:03;;;;;;;9.20;5.97;;;22.90;85.10;;;;;;5075457;28;20040;-48
2021/09/05 07:46:29;;;;;;;8.93;5.85;;;23.10;83.50;;;;;;5039799;28;20048;-49
2021/09/05 07:48:54;;;;;;;10.85;6.28;;;23.20;82.60;;;;;;5056493;28;20037;-50
2021/09/05 07:51:24;;;;;;;7.30;5.63;;;23.30;82.30;;;;;;5056462;28;20385;-47
2021/09/05 07:53:54;;;;;;;10.55;5.47;;;23.40;82.10;;;;;;5075301;28;20028;-50
2021/09/05 07:56:20;;;;;;;7.75;5.25;;;23.40;81.60;;;;;;5075103;28;20030;-48
2021/09/05 07:58:47;;;;;;;9.55;5.43;;;23.50;80.90;;;;;;5075132;28;20428;-48
2021/09/05 08:01:14;;;;;;;6.70;5.50;;;23.80;80.80;;;;;;5074965;28;20024;-49
2021/09/05 08:03:40;;;;;;;8.35;5.30;;;24.20;80.40;;;;;;5075065;28;20475;-49
2021/09/05 08:06:07;;;;;;;12.98;5.55;;;24.40;80.60;;;;;;5075101;28;20021;-50
2021/09/05 08:08:36;;;;;;;9.88;5.72;;;24.20;80.50;;;;;;5056116;28;20032;-50
2021/09/05 08:11:05;;;;;;;6.55;5.35;;;24.60;79.20;;;;;;5074917;28;20033;-50
2021/09/05 08:13:32;;;;;;;8.48;5.40;;;25.00;78.50;;;;;;5074529;28;20025;-48
2021/09/05 08:16:01;;;;;;;9.13;5.45;;;25.00;78.00;;;;;;5055967;28;20032;-48
2021/09/05 08:18:32;;;;;;;11.15;5.07;;;25.20;77.40;;;;;;5056233;28;20485;-50
2021/09/05 08:20:59;;;;;;;10.18;4.80;;;25.50;76.40;;;;;;5074725;28;20032;-48
2021/09/05 08:23:25;;;;;;;10.75;5.00;;;25.70;77.00;;;;;;5055861;28;20052;-48
2021/09/05 08:25:51;;;;;;;11.02;4.50;;;25.90;75.50;;;;;;5055385;28;20094;-48
2021/09/05 08:28:17;;;;;;;6.70;4.43;;;26.20;74.50;;;;;;5055678;28;20028;-48
2021/09/05 08:30:43;;;;;;;6.57;4.38;;;26.50;73.50;;;;;;5074478;28;20032;-49
2021/09/05 08:33:10;;;;;;;7.20;4.30;;;26.70;72.50;;;;;;5074015;28;20052;-51
2021/09/05 08:35:36;;;;;;;7.53;3.67;;;26.40;72.70;;;;;;5074578;28;20035;-51
2021/09/05 08:38:02;;;;;;;8.45;3.67;;;26.10;73.20;;;;;;5074153;28;20078;-50
2021/09/05 08:40:28;;;;;;;6.55;3.80;;;26.10;72.50;;;;;;5074115;28;20024;-51
2021/09/05 08:42:54;;;;;;;6.50;4.32;;;26.70;71.00;;;;;;5072159;28;20519;-53
2021/09/05 08:45:20;;;;;;;7.72;4.03;;;27.20;70.40;;;;;;5074209;28;20024;-51
2021/09/05 08:47:46;;;;;;;6.85;4.30;;;27.40;69.70;;;;;;5052646;28;20029;-50
2021/09/05 08:50:13;;;;;;;8.02;4.07;;;27.60;70.00;;;;;;5074078;28;20425;-53
2021/09/05 08:52:38;;;;;;;8.73;4.25;;;27.80;68.90;;;;;;4989085;28;20041;-52
2021/09/05 08:55:06;;;;;;;7.03;4.30;;;27.90;69.30;;;;;;5074003;28;20472;-53
2021/09/05 08:57:32;;;;;;;7.25;3.95;;;27.90;69.20;;;;;;5038809;28;20044;-49
2021/09/05 08:59:58;;;;;;;5.90;3.58;;;;;;;;;;5074066;28;20514;-51
2021/09/05 09:02:24;;;;;;;6.75;3.75;;;28.40;67.90;;;;;;5073803;28;20546;-52
2021/09/05 09:04:53;;;;;;;5.25;3.55;;;28.80;67.60;;;;;;5073380;28;20183;-53
2021/09/05 09:07:19;;;;;;;5.65;3.92;;;28.60;66.70;;;;;;5055962;28;20071;-50
2021/09/05 09:10:01;;;;;;;6.32;3.80;;;;;;;;;;5074938;28;20090;-51
2021/09/05 09:12:48;;;;;;;4.72;3.35;;;28.80;65.50;;;;;;5074778;28;20438;-53
2021/09/05 09:15:21;;;;;;;5.30;3.72;;;28.90;64.70;;;;;;5075199;28;20107;-51
2021/09/05 09:17:54;;;;;;;6.70;3.70;;;28.40;64.10;;;;;;5074347;28;20143;-51
2021/09/05 09:20:40;;;;;;;6.82;3.78;;;29.30;65.10;;;;;;5074846;28;20032;-53
2021/09/05 09:23:11;;;;;;;5.70;3.40;;;28.90;65.00;;;;;;5074490;28;20028;-53
2021/09/05 09:25:37;;;;;;;6.22;3.45;;;29.10;65.10;;;;;;5072926;28;20060;-51
2021/09/05 09:28:34;;;;;;;4.50;3.15;;;29.30;64.50;;;;;;5074642;28;20054;-50
2021/09/05 09:31:05;;;;;;;5.50;3.72;;;;;;;;;;5066997;28;20040;-52
2021/09/05 09:33:31;;;;;;;8.20;4.30;;;29.70;62.30;;;;;;5074424;28;20119;-52
2021/09/05 09:36:01;;;;;;;5.78;3.70;;;29.60;62.80;;;;;;5056101;28;20120;-50
2021/09/05 09:38:28;;;;;;;6.05;2.97;;;29.30;64.50;;;;;;5074482;28;20086;-52
2021/09/05 09:41:07;;;;;;;5.50;3.22;;;29.80;61.60;;;;;;5056180;28;20033;-50
2021/09/05 09:43:33;;;;;;;7.40;3.78;;;29.60;62.00;;;;;;5054907;28;20116;-53
2021/09/05 09:46:13;;;;;;;5.90;3.55;;;;;;;;;;5055778;28;20039;-51
2021/09/05 09:48:44;;;;;;;5.78;3.80;;;;;;;;;;5074246;28;20036;-51
2021/09/05 09:51:10;;;;;;;5.88;3.90;;;30.80;88.90;;;;;;5074272;28;20471;-52
2021/09/05 09:53:40;;;;;;;7.55;4.40;;;30.30;89.20;;;;;;5039635;28;20056;-52
2021/09/05 09:56:07;;;;;;;6.18;4.25;;;30.20;89.20;;;;;;5073749;28;20107;-52
2021/09/05 09:58:33;;;;;;;9.23;5.20;;;29.90;61.30;;;;;;5073973;28;20079;-53
2021/09/05 10:01:00;;;;;;;8.85;5.70;;;30.20;60.50;;;;;;5074100;28;20086;-51
2021/09/05 10:03:26;;;;;;;8.20;5.07;;;30.40;61.80;;;;;;5073871;28;20028;-51
2021/09/05 10:05:53;;;;;;;12.55;6.97;;;;;;;;;;5055347;28;20111;-51
2021/09/05 10:08:20;;;;;;;12.98;6.57;;;;;;;;;;5073952;28;20020;-53
2021/09/05 10:10:47;;;;;;;11.88;7.90;;;;;;;;;;5074014;28;20123;-52
2021/09/05 10:13:13;;;;;;;11.98;6.93;;;;;;;;;;5073898;28;20055;-51
2021/09/05 10:15:40;;;;;;;5.18;3.92;;;;;;;;;;5073954;28;20071;-52
2021/09/05 10:18:07;;;;;;;6.75;4.72;;;;;;;;;;5073279;28;20048;-51
2021/09/05 10:20:33;;;;;;;4.82;3.78;;;;;;;;;;5073914;28;20479;-52
2021/09/05 10:23:03;;;;;;;6.32;4.35;;;;;;;;;;5073558;28;20483;-51
2021/09/05 10:25:29;;;;;;;6.15;3.97;;;;;;;;;;5073480;28;20029;-51
2021/09/05 10:27:55;;;;;;;5.40;3.22;;;;;;;;;;5073526;28;20163;-51
2021/09/05 10:30:23;;;;;;;9.38;6.63;;;32.10;58.20;;;;;;5073712;28;20082;-51
2021/09/05 10:32:57;;;;;;;4.32;3.67;;;31.70;57.80;;;;;;5073542;28;20056;-53
2021/09/05 10:35:30;;;;;;;6.63;4.15;;;31.90;56.80;;;;;;5073643;28;20035;-52
2021/09/05 10:38:08;;;;;;;6.32;4.05;;;;;;;;;;5055126;28;20059;-50
2021/09/05 10:40:48;;;;;;;5.10;3.30;;;32.60;57.40;;;;;;5073334;28;20040;-50
2021/09/05 10:43:15;;;;;;;6.63;3.80;;;;;;;;;;5071342;28;20028;-50
2021/09/05 10:45:47;;;;;;;7.97;3.60;;;32.80;60.00;;;;;;5072405;28;20036;-50
2021/09/05 10:48:49;;;;;;;4.93;3.55;;;32.50;55.60;;;;;;5053330;28;20115;-49
2021/09/05 10:51:20;;;;;;;6.93;3.63;;;33.10;60.00;;;;;;5072079;28;20391;-50
2021/09/05 10:53:49;;;;;;;8.15;4.10;;;32.30;62.80;;;;;;5072208;28;20035;-51
2021/09/05 10:56:37;;;;;;;6.78;4.47;;;32.50;63.20;;;;;;5074798;28;20488;-52
2021/09/05 10:59:11;;;;;;;5.85;3.92;;;32.90;62.90;;;;;;5062044;28;20561;-50
2021/09/05 11:01:38;;;;;;;12.60;6.40;;;;;;;;;;5076505;28;20090;-51
2021/09/05 11:04:14;;;;;;;8.55;4.78;;;33.80;83.80;;;;;;5076164;28;20055;-51
2021/09/05 11:06:43;;;;;;;7.70;3.97;;;;;;;;;;5076098;28;20591;-50
2021/09/05 11:09:24;;;;;;;7.68;4.03;;;;;;;;;;5075579;28;20032;-52
2021/09/05 11:11:54;;;;;;;6.68;4.03;;;;;;;;;;5076043;28;20145;-50
2021/09/05 11:14:20;;;;;;;5.22;3.85;;;;;;;;;;5075956;28;20111;-51
2021/09/05 11:16:46;;;;;;;10.52;3.67;;;31.30;88.80;;;;;;5075547;28;20555;-50
2021/09/05 11:19:19;;;;;;;6.00;4.00;;;32.00;80.40;;;;;;5075793;28;20059;-52
2021/09/05 11:21:46;;;;;;;7.88;3.78;;;;;;;;;;5075276;28;20487;-51
2021/09/05 11:24:14;;;;;;;5.97;3.58;;;;;;;;;;5075651;28;20115;-49
2021/09/05 11:26:58;;;;;;;6.20;4.18;;;;;;;;;;5075653;28;20032;-51
2021/09/05 11:29:25;;;;;;;8.38;4.10;;;;;;;;;;5075543;28;20116;-50
2021/09/05 11:31:51;;;;;;;7.60;4.03;;;;;;;;;;5075563;28;20036;-52
2021/09/05 11:34:17;;;;;;;6.85;4.00;;;;;;;;;;5075004;28;20032;-49
2021/09/05 11:36:44;;;;;;;5.32;3.97;;;;;;;;;;5075676;28;20496;-50
2021/09/05 11:39:11;;;;;;;5.20;3.53;;;;;;;;;;5075448;28;20078;-50
2021/09/05 11:41:37;;;;;;;7.40;3.65;;;;;;;;;;5075528;28;20040;-52
2021/09/05 11:44:03;;;;;;;5.53;3.50;;;;;;;;;;5075468;28;20028;-52
2021/09/05 11:46:29;;;;;;;4.78;3.30;;;;;;;;;;5075324;28;20399;-51
2021/09/05 11:48:56;;;;;;;6.05;3.38;;;;;;;;;;5074910;28;20024;-52
2021/09/05 11:51:22;;;;;;;7.30;3.17;;;;;;;;;;5075251;28;20044;-51
2021/09/05 11:54:01;;;;;;;3.95;3.20;;;;;;;;;;5075325;28;20016;-50
2021/09/05 11:56:29;;;;;;;4.80;3.13;;;;;;;;;;5074849;28;20036;-50
2021/09/05 11:58:55;;;;;;;4.72;2.90;;;;;;;;;;5075245;28;20028;-51
2021/09/05 12:01:21;;;;;;;8.88;3.70;;;;;;;;;;5074611;28;20032;-50
2021/09/05 12:03:47;;;;;;;5.32;3.63;;;;;;;;;;5023139;28;20109;-49
2021/09/05 12:06:14;;;;;;;4.75;2.88;;;;;;;;;;5074154;28;20492;-50
2021/09/05 12:08:40;;;;;;;5.15;3.22;;;;;;;;;;5074980;28;20060;-52
2021/09/05 12:11:07;;;;;;;3.25;2.60;;;;;;;;;;5074950;28;20083;-50
2021/09/05 12:13:52;;;;;;;4.40;3.10;;;;;;;;;;5074326;28;20032;-51
2021/09/05 12:16:22;;;;;;;5.65;2.80;;;;;;;;;;5074724;28;20032;-52
2021/09/05 12:19:00;;;;;;;5.45;3.15;;;;;;;;;;5053110;28;20076;-52
2021/09/05 12:21:31;;;;;;;5.18;3.00;;;;;;;;;;5074736;28;20036;-52
2021/09/05 12:23:56;;;;;;;3.63;3.08;;;33.40;53.60;;;;;;5074691;28;20497;-50
2021/09/05 12:26:22;;;;;;;5.95;3.25;;;32.80;52.10;;;;;;5055334;28;20044;-52
2021/09/05 12:28:59;;;;;;;4.93;2.80;;;32.60;52.80;;;;;;5022499;28;20373;-51
2021/09/05 12:31:46;;;;;;;4.00;3.15;;;32.50;53.20;;;;;;5055725;28;20551;-52
2021/09/05 12:34:37;;;;;;;4.53;2.88;;;32.50;52.50;;;;;;5074366;28;20115;-52
2021/09/05 12:37:17;;;;;;;5.10;2.95;;;32.40;55.20;;;;;;5031930;28;20049;-52
2021/09/05 12:39:43;;;;;;;6.35;3.13;;;32.50;55.50;;;;;;5031677;28;20500;-52
2021/09/05 12:42:13;;;;;;;5.45;3.13;;;;;;;;;;5032196;28;20049;-50
2021/09/05 12:44:52;;;;;;;4.20;3.30;;;32.80;60.20;;;;;;5032085;28;20033;-51
2021/09/05 12:47:22;;;;;;;4.00;3.10;;;32.50;59.40;;;;;;5031959;28;20052;-51
2021/09/05 12:49:48;;;;;;;5.05;3.20;;;32.00;56.50;;;;;;5032005;28;20091;-52
2021/09/05 12:52:31;;;;;;;5.18;3.40;;;31.60;53.20;;;;;;5031665;28;20085;-52
2021/09/05 12:54:58;;;;;;;4.53;3.20;;;31.60;57.60;;;;;;5031884;28;20087;-50
2021/09/05 12:57:25;;;;;;;4.30;3.58;;;31.30;66.10;;;;;;5031740;28;20056;-51
2021/09/05 12:59:51;;;;;;;6.20;3.45;;;;;;;;;;4998874;28;20042;-52
2021/09/05 13:02:19;;;;;;;4.57;3.20;;;;;;;;;;5031617;28;20604;-52
2021/09/05 13:04:45;;;;;;;5.40;3.13;;;;;;;;;;5031721;28;20047;-52